sensor_id;sensor_type;location;lat;lon;timestamp;P1;durP1;ratioP1;P2;durP2;ratioP2
19519;SDS011;9904;52.246;20.898;2023-07-31T00:01:12;3.90;;;2.50;;
19519;SDS011;9904;52.246;20.898;2023-07-31T00:03:39;3.83;;;2.43;;
19519;SDS011;9904;52.246;20.898;2023-07-31T00:06:06;4.30;;;2.40;;
19519;SDS011;9904;52.246;20.898;2023-07-31T00:08:32;4.90;;;2.37;;
19519;SDS011;9904;52.246;20.898;2023-07-31T00:10:59;5.90;;;2.13;;
19519;SDS011;9904;52.246;20.898;2023-07-31T00:13:25;3.50;;;2.03;;
19519;SDS011;9904;52.246;20.898;2023-07-31T00:15:52;2.80;;;2.00;;
19519;SDS011;9904;52.246;20.898;2023-07-31T00:18:19;4.63;;;2.23;;
19519;SDS011;9904;52.246;20.898;2023-07-31T00:20:45;3.87;;;2.30;;
19519;SDS011;9904;52.246;20.898;2023-07-31T00:23:12;4.77;;;2.23;;
19519;SDS011;9904;52.246;20.898;2023-07-31T00:25:39;5.33;;;2.30;;
19519;SDS011;9904;52.246;20.898;2023-07-31T00:28:05;2.70;;;2.10;;
19519;SDS011;9904;52.246;20.898;2023-07-31T00:30:32;6.73;;;2.60;;
19519;SDS011;9904;52.246;20.898;2023-07-31T00:32:59;6.43;;;2.37;;
19519;SDS011;9904;52.246;20.898;2023-07-31T00:35:25;5.07;;;2.13;;
19519;SDS011;9904;52.246;20.898;2023-07-31T00:37:52;4.07;;;2.37;;
19519;SDS011;9904;52.246;20.898;2023-07-31T00:40:19;4.20;;;2.40;;
19519;SDS011;9904;52.246;20.898;2023-07-31T00:42:45;3.27;;;1.87;;
19519;SDS011;9904;52.246;20.898;2023-07-31T00:45:12;3.00;;;1.80;;
19519;SDS011;9904;52.246;20.898;2023-07-31T00:47:38;3.37;;;2.00;;
19519;SDS011;9904;52.246;20.898;2023-07-31T00:50:05;3.50;;;2.17;;
19519;SDS011;9904;52.246;20.898;2023-07-31T00:52:33;5.40;;;2.40;;
19519;SDS011;9904;52.246;20.898;2023-07-31T00:54:59;2.67;;;1.73;;
19519;SDS011;9904;52.246;20.898;2023-07-31T00:57:27;3.20;;;1.87;;
19519;SDS011;9904;52.246;20.898;2023-07-31T00:59:53;5.07;;;2.43;;
19519;SDS011;9904;52.246;20.898;2023-07-31T01:02:20;6.10;;;2.93;;
19519;SDS011;9904;52.246;20.898;2023-07-31T01:04:47;4.43;;;2.33;;
19519;SDS011;9904;52.246;20.898;2023-07-31T01:07:14;5.40;;;2.10;;
19519;SDS011;9904;52.246;20.898;2023-07-31T01:09:58;6.33;;;2.43;;
19519;SDS011;9904;52.246;20.898;2023-07-31T01:12:31;7.17;;;2.37;;
19519;SDS011;9904;52.246;20.898;2023-07-31T01:17:31;5.27;;;2.30;;
19519;SDS011;9904;52.246;20.898;2023-07-31T01:19:59;3.53;;;2.00;;
19519;SDS011;9904;52.246;20.898;2023-07-31T01:22:31;4.30;;;2.40;;
19519;SDS011;9904;52.246;20.898;2023-07-31T01:25:15;3.83;;;2.10;;
19519;SDS011;9904;52.246;20.898;2023-07-31T01:27:52;10.07;;;2.27;;
19519;SDS011;9904;52.246;20.898;2023-07-31T01:30:22;2.97;;;2.13;;
19519;SDS011;9904;52.246;20.898;2023-07-31T01:32:52;2.73;;;1.90;;
19519;SDS011;9904;52.246;20.898;2023-07-31T01:35:19;4.33;;;2.27;;
19519;SDS011;9904;52.246;20.898;2023-07-31T01:37:45;4.33;;;2.70;;
19519;SDS011;9904;52.246;20.898;2023-07-31T01:40:12;3.63;;;2.10;;
19519;SDS011;9904;52.246;20.898;2023-07-31T01:42:38;3.97;;;2.70;;
19519;SDS011;9904;52.246;20.898;2023-07-31T01:45:05;5.13;;;2.80;;
19519;SDS011;9904;52.246;20.898;2023-07-31T01:47:32;2.90;;;2.20;;
19519;SDS011;9904;52.246;20.898;2023-07-31T01:49:59;5.17;;;2.50;;
19519;SDS011;9904;52.246;20.898;2023-07-31T01:52:25;4.70;;;2.63;;
19519;SDS011;9904;52.246;20.898;2023-07-31T01:54:52;5.77;;;2.67;;
19519;SDS011;9904;52.246;20.898;2023-07-31T01:57:19;3.00;;;2.37;;
19519;SDS011;9904;52.246;20.898;2023-07-31T01:59:45;3.87;;;3.07;;
19519;SDS011;9904;52.246;20.898;2023-07-31T02:02:12;5.43;;;2.53;;
19519;SDS011;9904;52.246;20.898;2023-07-31T02:04:39;5.17;;;3.03;;
19519;SDS011;9904;52.246;20.898;2023-07-31T02:07:07;4.73;;;2.70;;
19519;SDS011;9904;52.246;20.898;2023-07-31T02:09:33;5.27;;;3.03;;
19519;SDS011;9904;52.246;20.898;2023-07-31T02:12:00;7.90;;;2.77;;
19519;SDS011;9904;52.246;20.898;2023-07-31T02:14:27;7.20;;;2.90;;
19519;SDS011;9904;52.246;20.898;2023-07-31T02:16:53;5.20;;;3.00;;
19519;SDS011;9904;52.246;20.898;2023-07-31T02:19:20;5.43;;;2.80;;
19519;SDS011;9904;52.246;20.898;2023-07-31T02:21:47;8.87;;;3.27;;
19519;SDS011;9904;52.246;20.898;2023-07-31T02:24:13;5.97;;;3.33;;
19519;SDS011;9904;52.246;20.898;2023-07-31T02:26:40;6.40;;;3.50;;
19519;SDS011;9904;52.246;20.898;2023-07-31T02:29:08;6.03;;;3.27;;
19519;SDS011;9904;52.246;20.898;2023-07-31T02:31:35;5.80;;;3.20;;
19519;SDS011;9904;52.246;20.898;2023-07-31T02:34:01;5.37;;;3.40;;
19519;SDS011;9904;52.246;20.898;2023-07-31T02:36:28;8.13;;;3.10;;
19519;SDS011;9904;52.246;20.898;2023-07-31T02:38:54;8.00;;;3.53;;
19519;SDS011;9904;52.246;20.898;2023-07-31T02:41:21;4.20;;;3.43;;
19519;SDS011;9904;52.246;20.898;2023-07-31T02:43:48;4.53;;;3.13;;
19519;SDS011;9904;52.246;20.898;2023-07-31T02:46:14;6.77;;;3.40;;
19519;SDS011;9904;52.246;20.898;2023-07-31T02:48:41;5.17;;;3.23;;
19519;SDS011;9904;52.246;20.898;2023-07-31T02:51:07;5.23;;;3.60;;
19519;SDS011;9904;52.246;20.898;2023-07-31T02:53:34;10.57;;;4.20;;
19519;SDS011;9904;52.246;20.898;2023-07-31T02:56:00;9.33;;;3.87;;
19519;SDS011;9904;52.246;20.898;2023-07-31T02:58:27;9.60;;;4.17;;
19519;SDS011;9904;52.246;20.898;2023-07-31T03:00:53;5.50;;;3.80;;
19519;SDS011;9904;52.246;20.898;2023-07-31T03:03:20;6.37;;;3.43;;
19519;SDS011;9904;52.246;20.898;2023-07-31T03:05:47;7.03;;;3.90;;
19519;SDS011;9904;52.246;20.898;2023-07-31T03:08:13;5.43;;;3.87;;
19519;SDS011;9904;52.246;20.898;2023-07-31T03:10:40;9.67;;;3.70;;
19519;SDS011;9904;52.246;20.898;2023-07-31T03:13:06;9.63;;;3.83;;
19519;SDS011;9904;52.246;20.898;2023-07-31T03:15:33;6.70;;;3.83;;
19519;SDS011;9904;52.246;20.898;2023-07-31T03:17:59;9.03;;;3.63;;
19519;SDS011;9904;52.246;20.898;2023-07-31T03:20:26;5.83;;;3.50;;
19519;SDS011;9904;52.246;20.898;2023-07-31T03:22:53;6.47;;;3.97;;
19519;SDS011;9904;52.246;20.898;2023-07-31T03:25:19;6.27;;;3.93;;
19519;SDS011;9904;52.246;20.898;2023-07-31T03:27:46;6.83;;;3.77;;
19519;SDS011;9904;52.246;20.898;2023-07-31T03:30:12;8.17;;;3.83;;
19519;SDS011;9904;52.246;20.898;2023-07-31T03:32:39;6.90;;;3.50;;
19519;SDS011;9904;52.246;20.898;2023-07-31T03:35:06;5.40;;;3.27;;
19519;SDS011;9904;52.246;20.898;2023-07-31T03:37:33;12.43;;;3.77;;
19519;SDS011;9904;52.246;20.898;2023-07-31T03:39:59;7.33;;;3.80;;
19519;SDS011;9904;52.246;20.898;2023-07-31T03:42:26;7.27;;;3.27;;
19519;SDS011;9904;52.246;20.898;2023-07-31T03:44:53;5.27;;;3.13;;
19519;SDS011;9904;52.246;20.898;2023-07-31T03:47:19;8.90;;;3.50;;
19519;SDS011;9904;52.246;20.898;2023-07-31T03:49:47;6.90;;;3.23;;
19519;SDS011;9904;52.246;20.898;2023-07-31T03:52:14;7.57;;;3.20;;
19519;SDS011;9904;52.246;20.898;2023-07-31T03:54:40;6.30;;;3.30;;
19519;SDS011;9904;52.246;20.898;2023-07-31T03:57:07;6.23;;;3.63;;
19519;SDS011;9904;52.246;20.898;2023-07-31T03:59:34;7.73;;;3.37;;
19519;SDS011;9904;52.246;20.898;2023-07-31T04:02:00;5.43;;;3.10;;
19519;SDS011;9904;52.246;20.898;2023-07-31T04:04:27;4.17;;;2.93;;
19519;SDS011;9904;52.246;20.898;2023-07-31T04:06:54;6.70;;;3.47;;
19519;SDS011;9904;52.246;20.898;2023-07-31T04:09:20;10.57;;;3.60;;
19519;SDS011;9904;52.246;20.898;2023-07-31T04:11:47;5.37;;;3.40;;
19519;SDS011;9904;52.246;20.898;2023-07-31T04:14:14;7.83;;;3.10;;
19519;SDS011;9904;52.246;20.898;2023-07-31T04:16:40;5.87;;;3.03;;
19519;SDS011;9904;52.246;20.898;2023-07-31T04:19:08;4.50;;;3.10;;
19519;SDS011;9904;52.246;20.898;2023-07-31T04:21:36;6.93;;;3.20;;
19519;SDS011;9904;52.246;20.898;2023-07-31T04:24:03;5.67;;;3.00;;
19519;SDS011;9904;52.246;20.898;2023-07-31T04:26:30;6.00;;;2.97;;
19519;SDS011;9904;52.246;20.898;2023-07-31T04:28:56;8.00;;;3.37;;
19519;SDS011;9904;52.246;20.898;2023-07-31T04:31:24;8.10;;;3.33;;
19519;SDS011;9904;52.246;20.898;2023-07-31T04:33:51;8.63;;;2.90;;
19519;SDS011;9904;52.246;20.898;2023-07-31T04:36:18;8.73;;;3.40;;
19519;SDS011;9904;52.246;20.898;2023-07-31T04:38:44;14.50;;;3.40;;
19519;SDS011;9904;52.246;20.898;2023-07-31T04:41:11;8.60;;;3.50;;
19519;SDS011;9904;52.246;20.898;2023-07-31T04:43:38;7.20;;;3.30;;
19519;SDS011;9904;52.246;20.898;2023-07-31T04:46:06;7.40;;;3.40;;
19519;SDS011;9904;52.246;20.898;2023-07-31T04:48:32;6.27;;;3.40;;
19519;SDS011;9904;52.246;20.898;2023-07-31T04:50:59;5.03;;;3.23;;
19519;SDS011;9904;52.246;20.898;2023-07-31T04:53:26;10.47;;;3.73;;
19519;SDS011;9904;52.246;20.898;2023-07-31T04:55:52;10.67;;;3.23;;
19519;SDS011;9904;52.246;20.898;2023-07-31T04:58:19;7.20;;;3.43;;
19519;SDS011;9904;52.246;20.898;2023-07-31T05:00:45;7.33;;;3.40;;
19519;SDS011;9904;52.246;20.898;2023-07-31T05:03:12;11.03;;;3.47;;
19519;SDS011;9904;52.246;20.898;2023-07-31T05:05:39;4.53;;;3.07;;
19519;SDS011;9904;52.246;20.898;2023-07-31T05:08:06;6.70;;;3.40;;
19519;SDS011;9904;52.246;20.898;2023-07-31T05:10:32;9.53;;;3.30;;
19519;SDS011;9904;52.246;20.898;2023-07-31T05:12:59;5.90;;;3.33;;
19519;SDS011;9904;52.246;20.898;2023-07-31T05:15:25;8.43;;;3.20;;
19519;SDS011;9904;52.246;20.898;2023-07-31T05:17:52;5.07;;;3.30;;
19519;SDS011;9904;52.246;20.898;2023-07-31T05:20:19;7.23;;;3.10;;
19519;SDS011;9904;52.246;20.898;2023-07-31T05:22:46;9.63;;;3.03;;
19519;SDS011;9904;52.246;20.898;2023-07-31T05:25:13;6.70;;;2.97;;
19519;SDS011;9904;52.246;20.898;2023-07-31T05:27:39;8.80;;;2.97;;
19519;SDS011;9904;52.246;20.898;2023-07-31T05:30:06;7.53;;;3.07;;
19519;SDS011;9904;52.246;20.898;2023-07-31T05:32:33;8.83;;;2.90;;
19519;SDS011;9904;52.246;20.898;2023-07-31T05:35:00;9.13;;;3.10;;
19519;SDS011;9904;52.246;20.898;2023-07-31T05:37:26;9.63;;;2.57;;
19519;SDS011;9904;52.246;20.898;2023-07-31T05:39:53;5.50;;;2.87;;
19519;SDS011;9904;52.246;20.898;2023-07-31T05:42:19;8.10;;;2.90;;
19519;SDS011;9904;52.246;20.898;2023-07-31T05:44:46;6.33;;;3.13;;
19519;SDS011;9904;52.246;20.898;2023-07-31T05:47:13;5.97;;;2.60;;
19519;SDS011;9904;52.246;20.898;2023-07-31T05:49:40;5.90;;;3.23;;
19519;SDS011;9904;52.246;20.898;2023-07-31T05:52:06;6.37;;;2.70;;
19519;SDS011;9904;52.246;20.898;2023-07-31T05:54:33;5.97;;;2.80;;
19519;SDS011;9904;52.246;20.898;2023-07-31T05:57:00;6.47;;;2.70;;
19519;SDS011;9904;52.246;20.898;2023-07-31T05:59:27;4.87;;;2.50;;
19519;SDS011;9904;52.246;20.898;2023-07-31T06:01:54;12.47;;;2.40;;
19519;SDS011;9904;52.246;20.898;2023-07-31T06:04:20;8.73;;;2.63;;
19519;SDS011;9904;52.246;20.898;2023-07-31T06:06:50;5.50;;;2.27;;
19519;SDS011;9904;52.246;20.898;2023-07-31T06:09:17;11.23;;;2.80;;
19519;SDS011;9904;52.246;20.898;2023-07-31T06:11:44;10.20;;;2.43;;
19519;SDS011;9904;52.246;20.898;2023-07-31T06:14:10;5.77;;;2.83;;
19519;SDS011;9904;52.246;20.898;2023-07-31T06:16:37;4.70;;;2.63;;
19519;SDS011;9904;52.246;20.898;2023-07-31T06:19:04;7.67;;;2.70;;
19519;SDS011;9904;52.246;20.898;2023-07-31T06:21:30;8.27;;;3.43;;
19519;SDS011;9904;52.246;20.898;2023-07-31T06:23:57;7.30;;;3.17;;
19519;SDS011;9904;52.246;20.898;2023-07-31T06:26:24;7.53;;;3.23;;
19519;SDS011;9904;52.246;20.898;2023-07-31T06:28:51;6.57;;;3.17;;
19519;SDS011;9904;52.246;20.898;2023-07-31T06:31:17;7.40;;;2.97;;
19519;SDS011;9904;52.246;20.898;2023-07-31T06:33:46;10.80;;;3.30;;
19519;SDS011;9904;52.246;20.898;2023-07-31T06:36:13;6.10;;;2.97;;
19519;SDS011;9904;52.246;20.898;2023-07-31T06:38:39;6.07;;;3.20;;
19519;SDS011;9904;52.246;20.898;2023-07-31T06:41:06;8.73;;;2.90;;
19519;SDS011;9904;52.246;20.898;2023-07-31T06:43:33;10.43;;;3.23;;
19519;SDS011;9904;52.246;20.898;2023-07-31T06:46:04;6.60;;;3.03;;
19519;SDS011;9904;52.246;20.898;2023-07-31T06:48:32;9.93;;;3.33;;
19519;SDS011;9904;52.246;20.898;2023-07-31T06:51:00;7.83;;;3.27;;
19519;SDS011;9904;52.246;20.898;2023-07-31T06:53:27;12.37;;;3.13;;
19519;SDS011;9904;52.246;20.898;2023-07-31T06:55:54;7.43;;;2.70;;
19519;SDS011;9904;52.246;20.898;2023-07-31T06:58:21;6.03;;;2.53;;
19519;SDS011;9904;52.246;20.898;2023-07-31T07:00:47;8.37;;;3.10;;
19519;SDS011;9904;52.246;20.898;2023-07-31T07:03:17;5.57;;;2.83;;
19519;SDS011;9904;52.246;20.898;2023-07-31T07:05:44;8.37;;;2.77;;
19519;SDS011;9904;52.246;20.898;2023-07-31T07:08:11;6.30;;;2.83;;
19519;SDS011;9904;52.246;20.898;2023-07-31T07:10:38;8.70;;;2.97;;
19519;SDS011;9904;52.246;20.898;2023-07-31T07:13:04;9.07;;;2.60;;
19519;SDS011;9904;52.246;20.898;2023-07-31T07:15:31;7.33;;;2.30;;
19519;SDS011;9904;52.246;20.898;2023-07-31T07:17:58;6.77;;;2.30;;
19519;SDS011;9904;52.246;20.898;2023-07-31T07:20:29;5.30;;;2.60;;
19519;SDS011;9904;52.246;20.898;2023-07-31T07:22:56;7.10;;;2.53;;
19519;SDS011;9904;52.246;20.898;2023-07-31T07:25:23;6.30;;;2.40;;
19519;SDS011;9904;52.246;20.898;2023-07-31T07:27:50;8.83;;;2.33;;
19519;SDS011;9904;52.246;20.898;2023-07-31T07:30:17;6.53;;;2.47;;
19519;SDS011;9904;52.246;20.898;2023-07-31T07:32:47;4.43;;;2.13;;
19519;SDS011;9904;52.246;20.898;2023-07-31T07:35:14;10.53;;;3.03;;
19519;SDS011;9904;52.246;20.898;2023-07-31T07:37:40;7.43;;;2.37;;
19519;SDS011;9904;52.246;20.898;2023-07-31T07:40:07;4.47;;;2.60;;
19519;SDS011;9904;52.246;20.898;2023-07-31T07:42:35;5.83;;;2.37;;
19519;SDS011;9904;52.246;20.898;2023-07-31T07:45:02;8.80;;;2.50;;
19519;SDS011;9904;52.246;20.898;2023-07-31T07:47:29;4.90;;;2.30;;
19519;SDS011;9904;52.246;20.898;2023-07-31T07:49:56;5.07;;;2.40;;
19519;SDS011;9904;52.246;20.898;2023-07-31T07:52:22;8.33;;;2.50;;
19519;SDS011;9904;52.246;20.898;2023-07-31T07:54:49;11.27;;;2.70;;
19519;SDS011;9904;52.246;20.898;2023-07-31T07:57:16;8.30;;;2.67;;
19519;SDS011;9904;52.246;20.898;2023-07-31T07:59:42;6.37;;;2.30;;
19519;SDS011;9904;52.246;20.898;2023-07-31T08:02:09;7.33;;;2.53;;
19519;SDS011;9904;52.246;20.898;2023-07-31T08:04:36;4.80;;;2.40;;
19519;SDS011;9904;52.246;20.898;2023-07-31T08:07:02;9.23;;;2.90;;
19519;SDS011;9904;52.246;20.898;2023-07-31T08:09:29;6.87;;;2.57;;
19519;SDS011;9904;52.246;20.898;2023-07-31T08:11:55;10.77;;;2.50;;
19519;SDS011;9904;52.246;20.898;2023-07-31T08:14:28;4.40;;;2.30;;
19519;SDS011;9904;52.246;20.898;2023-07-31T08:16:59;8.93;;;2.67;;
19519;SDS011;9904;52.246;20.898;2023-07-31T08:19:27;8.83;;;2.50;;
19519;SDS011;9904;52.246;20.898;2023-07-31T08:21:54;9.73;;;2.73;;
19519;SDS011;9904;52.246;20.898;2023-07-31T08:24:24;5.73;;;2.13;;
19519;SDS011;9904;52.246;20.898;2023-07-31T08:26:50;5.20;;;2.30;;
19519;SDS011;9904;52.246;20.898;2023-07-31T08:29:17;7.53;;;2.20;;
19519;SDS011;9904;52.246;20.898;2023-07-31T08:31:44;6.63;;;2.27;;
19519;SDS011;9904;52.246;20.898;2023-07-31T08:34:11;8.43;;;2.77;;
19519;SDS011;9904;52.246;20.898;2023-07-31T08:36:37;6.47;;;2.47;;
19519;SDS011;9904;52.246;20.898;2023-07-31T08:39:05;6.00;;;2.13;;
19519;SDS011;9904;52.246;20.898;2023-07-31T08:41:37;5.87;;;2.20;;
19519;SDS011;9904;52.246;20.898;2023-07-31T08:44:04;5.63;;;2.40;;
19519;SDS011;9904;52.246;20.898;2023-07-31T08:46:31;5.87;;;2.30;;
19519;SDS011;9904;52.246;20.898;2023-07-31T08:48:59;5.73;;;2.30;;
19519;SDS011;9904;52.246;20.898;2023-07-31T08:51:27;8.30;;;2.23;;
19519;SDS011;9904;52.246;20.898;2023-07-31T08:53:54;6.67;;;2.70;;
19519;SDS011;9904;52.246;20.898;2023-07-31T08:56:21;6.93;;;2.50;;
19519;SDS011;9904;52.246;20.898;2023-07-31T08:58:47;7.17;;;2.07;;
19519;SDS011;9904;52.246;20.898;2023-07-31T09:01:16;5.03;;;1.93;;
19519;SDS011;9904;52.246;20.898;2023-07-31T09:03:42;5.10;;;1.97;;
19519;SDS011;9904;52.246;20.898;2023-07-31T09:06:10;6.80;;;2.43;;
19519;SDS011;9904;52.246;20.898;2023-07-31T09:08:39;9.23;;;2.10;;
19519;SDS011;9904;52.246;20.898;2023-07-31T09:11:07;4.53;;;1.90;;
19519;SDS011;9904;52.246;20.898;2023-07-31T09:13:33;9.43;;;2.23;;
19519;SDS011;9904;52.246;20.898;2023-07-31T09:16:00;11.47;;;2.47;;
19519;SDS011;9904;52.246;20.898;2023-07-31T09:18:27;5.47;;;2.00;;
19519;SDS011;9904;52.246;20.898;2023-07-31T09:21:04;5.60;;;1.80;;
19519;SDS011;9904;52.246;20.898;2023-07-31T09:23:44;6.30;;;2.00;;
19519;SDS011;9904;52.246;20.898;2023-07-31T09:26:11;7.47;;;2.23;;
19519;SDS011;9904;52.246;20.898;2023-07-31T09:28:54;5.73;;;2.10;;
19519;SDS011;9904;52.246;20.898;2023-07-31T09:31:40;6.10;;;2.27;;
19519;SDS011;9904;52.246;20.898;2023-07-31T09:34:08;6.60;;;2.13;;
19519;SDS011;9904;52.246;20.898;2023-07-31T09:36:41;5.40;;;1.90;;
19519;SDS011;9904;52.246;20.898;2023-07-31T09:39:15;3.90;;;1.77;;
19519;SDS011;9904;52.246;20.898;2023-07-31T09:41:46;4.63;;;1.53;;
19519;SDS011;9904;52.246;20.898;2023-07-31T09:44:14;8.40;;;1.80;;
19519;SDS011;9904;52.246;20.898;2023-07-31T09:46:41;6.30;;;1.93;;
19519;SDS011;9904;52.246;20.898;2023-07-31T09:51:40;5.60;;;1.90;;
19519;SDS011;9904;52.246;20.898;2023-07-31T09:54:11;3.37;;;1.47;;
19519;SDS011;9904;52.246;20.898;2023-07-31T09:56:48;7.03;;;1.67;;
19519;SDS011;9904;52.246;20.898;2023-07-31T09:59:16;7.33;;;1.53;;
19519;SDS011;9904;52.246;20.898;2023-07-31T10:01:47;3.63;;;1.63;;
19519;SDS011;9904;52.246;20.898;2023-07-31T10:04:14;5.13;;;1.53;;
19519;SDS011;9904;52.246;20.898;2023-07-31T10:06:42;2.90;;;1.40;;
19519;SDS011;9904;52.246;20.898;2023-07-31T10:09:10;5.57;;;1.63;;
19519;SDS011;9904;52.246;20.898;2023-07-31T10:11:38;4.13;;;1.40;;
19519;SDS011;9904;52.246;20.898;2023-07-31T10:14:20;5.93;;;1.40;;
19519;SDS011;9904;52.246;20.898;2023-07-31T10:16:47;3.53;;;1.30;;
19519;SDS011;9904;52.246;20.898;2023-07-31T10:19:13;3.00;;;1.50;;
19519;SDS011;9904;52.246;20.898;2023-07-31T10:21:41;5.03;;;1.30;;
19519;SDS011;9904;52.246;20.898;2023-07-31T10:24:08;4.40;;;1.10;;
19519;SDS011;9904;52.246;20.898;2023-07-31T10:26:35;6.37;;;1.70;;
19519;SDS011;9904;52.246;20.898;2023-07-31T10:29:04;3.33;;;1.57;;
19519;SDS011;9904;52.246;20.898;2023-07-31T10:31:32;3.53;;;1.43;;
19519;SDS011;9904;52.246;20.898;2023-07-31T10:33:59;4.00;;;1.40;;
19519;SDS011;9904;52.246;20.898;2023-07-31T10:36:27;5.50;;;1.83;;
19519;SDS011;9904;52.246;20.898;2023-07-31T10:38:55;7.70;;;1.60;;
19519;SDS011;9904;52.246;20.898;2023-07-31T10:41:40;8.00;;;1.27;;
19519;SDS011;9904;52.246;20.898;2023-07-31T10:44:07;4.63;;;1.20;;
19519;SDS011;9904;52.246;20.898;2023-07-31T10:46:34;3.60;;;1.20;;
19519;SDS011;9904;52.246;20.898;2023-07-31T10:49:03;4.03;;;0.90;;
19519;SDS011;9904;52.246;20.898;2023-07-31T10:51:36;2.93;;;1.03;;
19519;SDS011;9904;52.246;20.898;2023-07-31T10:54:12;5.50;;;1.50;;
19519;SDS011;9904;52.246;20.898;2023-07-31T10:56:40;3.77;;;1.30;;
19519;SDS011;9904;52.246;20.898;2023-07-31T10:59:11;2.27;;;1.00;;
19519;SDS011;9904;52.246;20.898;2023-07-31T11:01:51;3.10;;;1.13;;
19519;SDS011;9904;52.246;20.898;2023-07-31T11:04:22;5.23;;;1.40;;
19519;SDS011;9904;52.246;20.898;2023-07-31T11:06:57;5.10;;;1.27;;
19519;SDS011;9904;52.246;20.898;2023-07-31T11:09:29;4.63;;;1.20;;
19519;SDS011;9904;52.246;20.898;2023-07-31T11:12:01;4.67;;;1.33;;
19519;SDS011;9904;52.246;20.898;2023-07-31T11:14:28;5.43;;;1.40;;
19519;SDS011;9904;52.246;20.898;2023-07-31T11:16:55;9.33;;;1.53;;
19519;SDS011;9904;52.246;20.898;2023-07-31T11:19:24;6.93;;;1.60;;
19519;SDS011;9904;52.246;20.898;2023-07-31T11:21:52;4.93;;;1.60;;
19519;SDS011;9904;52.246;20.898;2023-07-31T11:24:21;5.90;;;1.40;;
19519;SDS011;9904;52.246;20.898;2023-07-31T11:26:53;3.93;;;1.20;;
19519;SDS011;9904;52.246;20.898;2023-07-31T11:29:20;2.40;;;1.03;;
19519;SDS011;9904;52.246;20.898;2023-07-31T11:31:47;3.53;;;0.97;;
19519;SDS011;9904;52.246;20.898;2023-07-31T11:34:15;6.70;;;1.47;;
19519;SDS011;9904;52.246;20.898;2023-07-31T11:36:52;3.53;;;1.20;;
19519;SDS011;9904;52.246;20.898;2023-07-31T11:39:19;4.53;;;1.30;;
19519;SDS011;9904;52.246;20.898;2023-07-31T11:41:46;3.03;;;0.87;;
19519;SDS011;9904;52.246;20.898;2023-07-31T11:44:13;4.77;;;1.40;;
19519;SDS011;9904;52.246;20.898;2023-07-31T11:46:53;3.63;;;1.23;;
19519;SDS011;9904;52.246;20.898;2023-07-31T11:49:23;4.27;;;1.20;;
19519;SDS011;9904;52.246;20.898;2023-07-31T11:51:49;3.23;;;1.27;;
19519;SDS011;9904;52.246;20.898;2023-07-31T11:54:16;3.47;;;1.33;;
19519;SDS011;9904;52.246;20.898;2023-07-31T11:56:43;3.40;;;1.10;;
19519;SDS011;9904;52.246;20.898;2023-07-31T11:59:10;3.87;;;1.53;;
19519;SDS011;9904;52.246;20.898;2023-07-31T12:01:38;4.67;;;1.20;;
19519;SDS011;9904;52.246;20.898;2023-07-31T12:04:05;2.70;;;1.00;;
19519;SDS011;9904;52.246;20.898;2023-07-31T12:06:36;2.50;;;1.17;;
19519;SDS011;9904;52.246;20.898;2023-07-31T12:09:06;4.83;;;1.27;;
19519;SDS011;9904;52.246;20.898;2023-07-31T12:11:45;3.07;;;1.43;;
19519;SDS011;9904;52.246;20.898;2023-07-31T12:14:22;3.90;;;1.13;;
19519;SDS011;9904;52.246;20.898;2023-07-31T12:16:58;6.53;;;1.40;;
19519;SDS011;9904;52.246;20.898;2023-07-31T12:19:28;4.13;;;1.23;;
19519;SDS011;9904;52.246;20.898;2023-07-31T12:21:56;6.63;;;1.40;;
19519;SDS011;9904;52.246;20.898;2023-07-31T12:24:26;4.10;;;1.27;;
19519;SDS011;9904;52.246;20.898;2023-07-31T12:26:53;2.40;;;1.07;;
19519;SDS011;9904;52.246;20.898;2023-07-31T12:29:21;4.23;;;1.17;;
19519;SDS011;9904;52.246;20.898;2023-07-31T12:31:47;3.00;;;1.37;;
19519;SDS011;9904;52.246;20.898;2023-07-31T12:34:17;5.33;;;1.50;;
19519;SDS011;9904;52.246;20.898;2023-07-31T12:36:45;5.47;;;1.53;;
19519;SDS011;9904;52.246;20.898;2023-07-31T12:39:12;6.50;;;1.40;;
19519;SDS011;9904;52.246;20.898;2023-07-31T12:41:39;5.77;;;1.50;;
19519;SDS011;9904;52.246;20.898;2023-07-31T12:44:06;3.53;;;1.40;;
19519;SDS011;9904;52.246;20.898;2023-07-31T12:46:33;5.10;;;1.90;;
19519;SDS011;9904;52.246;20.898;2023-07-31T12:48:59;13.30;;;2.00;;
19519;SDS011;9904;52.246;20.898;2023-07-31T12:51:27;4.13;;;1.20;;
19519;SDS011;9904;52.246;20.898;2023-07-31T12:53:53;3.43;;;1.50;;
19519;SDS011;9904;52.246;20.898;2023-07-31T12:56:20;4.17;;;1.50;;
19519;SDS011;9904;52.246;20.898;2023-07-31T12:58:47;5.07;;;1.50;;
19519;SDS011;9904;52.246;20.898;2023-07-31T13:01:13;4.43;;;1.50;;
19519;SDS011;9904;52.246;20.898;2023-07-31T13:03:40;7.63;;;1.63;;
19519;SDS011;9904;52.246;20.898;2023-07-31T13:06:07;8.17;;;1.60;;
19519;SDS011;9904;52.246;20.898;2023-07-31T13:08:33;8.63;;;1.57;;
19519;SDS011;9904;52.246;20.898;2023-07-31T13:11:00;6.43;;;1.50;;
19519;SDS011;9904;52.246;20.898;2023-07-31T13:13:27;6.57;;;1.70;;
19519;SDS011;9904;52.246;20.898;2023-07-31T13:15:59;5.13;;;1.50;;
19519;SDS011;9904;52.246;20.898;2023-07-31T13:18:27;20.53;;;1.90;;
19519;SDS011;9904;52.246;20.898;2023-07-31T13:20:54;4.57;;;1.87;;
19519;SDS011;9904;52.246;20.898;2023-07-31T13:23:20;3.97;;;1.40;;
19519;SDS011;9904;52.246;20.898;2023-07-31T13:25:48;3.53;;;1.27;;
19519;SDS011;9904;52.246;20.898;2023-07-31T13:28:14;3.83;;;1.33;;
19519;SDS011;9904;52.246;20.898;2023-07-31T13:30:41;4.73;;;1.40;;
19519;SDS011;9904;52.246;20.898;2023-07-31T13:33:07;4.20;;;1.20;;
19519;SDS011;9904;52.246;20.898;2023-07-31T13:35:54;5.17;;;1.83;;
19519;SDS011;9904;52.246;20.898;2023-07-31T13:38:21;5.63;;;1.40;;
19519;SDS011;9904;52.246;20.898;2023-07-31T13:40:47;6.53;;;1.57;;
19519;SDS011;9904;52.246;20.898;2023-07-31T13:43:14;6.40;;;1.40;;
19519;SDS011;9904;52.246;20.898;2023-07-31T13:45:40;2.97;;;1.30;;
19519;SDS011;9904;52.246;20.898;2023-07-31T13:48:07;9.57;;;1.70;;
19519;SDS011;9904;52.246;20.898;2023-07-31T13:50:34;3.73;;;1.60;;
19519;SDS011;9904;52.246;20.898;2023-07-31T13:53:00;8.27;;;1.57;;
19519;SDS011;9904;52.246;20.898;2023-07-31T13:55:27;6.23;;;1.90;;
19519;SDS011;9904;52.246;20.898;2023-07-31T13:57:54;4.83;;;1.60;;
19519;SDS011;9904;52.246;20.898;2023-07-31T14:00:20;5.00;;;1.50;;
19519;SDS011;9904;52.246;20.898;2023-07-31T14:02:47;2.87;;;1.30;;
19519;SDS011;9904;52.246;20.898;2023-07-31T14:05:14;5.33;;;1.50;;
19519;SDS011;9904;52.246;20.898;2023-07-31T14:07:40;7.03;;;1.63;;
19519;SDS011;9904;52.246;20.898;2023-07-31T14:10:07;3.13;;;1.20;;
19519;SDS011;9904;52.246;20.898;2023-07-31T14:12:34;8.60;;;1.43;;
19519;SDS011;9904;52.246;20.898;2023-07-31T14:15:08;7.87;;;2.50;;
19519;SDS011;9904;52.246;20.898;2023-07-31T14:17:34;5.90;;;1.80;;
19519;SDS011;9904;52.246;20.898;2023-07-31T14:20:02;4.17;;;1.90;;
19519;SDS011;9904;52.246;20.898;2023-07-31T14:22:30;6.77;;;1.87;;
19519;SDS011;9904;52.246;20.898;2023-07-31T14:24:57;5.20;;;1.80;;
19519;SDS011;9904;52.246;20.898;2023-07-31T14:27:24;7.00;;;1.53;;
19519;SDS011;9904;52.246;20.898;2023-07-31T14:29:51;5.90;;;1.43;;
19519;SDS011;9904;52.246;20.898;2023-07-31T14:32:17;6.23;;;1.73;;
19519;SDS011;9904;52.246;20.898;2023-07-31T14:34:44;5.60;;;1.50;;
19519;SDS011;9904;52.246;20.898;2023-07-31T14:37:10;4.33;;;1.70;;
19519;SDS011;9904;52.246;20.898;2023-07-31T14:39:37;6.37;;;2.03;;
19519;SDS011;9904;52.246;20.898;2023-07-31T14:42:06;4.60;;;1.70;;
19519;SDS011;9904;52.246;20.898;2023-07-31T14:44:33;2.63;;;1.37;;
19519;SDS011;9904;52.246;20.898;2023-07-31T14:47:00;3.40;;;1.43;;
19519;SDS011;9904;52.246;20.898;2023-07-31T14:49:27;6.60;;;1.30;;
19519;SDS011;9904;52.246;20.898;2023-07-31T14:51:54;4.27;;;1.57;;
19519;SDS011;9904;52.246;20.898;2023-07-31T14:54:21;4.00;;;1.60;;
19519;SDS011;9904;52.246;20.898;2023-07-31T14:56:47;3.70;;;1.50;;